createdAt,value
2022-12-01T00:02:49.646Z,2.55
2022-12-01T00:07:54.964Z,2.63
2022-12-01T00:13:04.770Z,2.35
2022-12-01T00:18:09.954Z,2.38
2022-12-01T00:23:15.194Z,2.42
2022-12-01T00:28:22.886Z,2.35
2022-12-01T00:33:27.847Z,2.53
2022-12-01T00:38:33.127Z,2.35
2022-12-01T00:43:40.800Z,2.80
2022-12-01T00:48:45.848Z,1.90
2022-12-01T00:53:50.826Z,2.55
2022-12-01T00:58:58.404Z,1.67
2022-12-01T01:04:03.592Z,1.85
2022-12-01T01:09:08.544Z,1.73
2022-12-01T01:14:16.248Z,1.83
2022-12-01T01:19:21.372Z,2.38
2022-12-01T01:24:26.408Z,1.70
2022-12-01T01:29:33.946Z,2.08
2022-12-01T01:34:39.071Z,1.85
2022-12-01T01:39:44.202Z,2.47
2022-12-01T01:44:56.632Z,2.13
2022-12-01T01:50:06.722Z,1.70
2022-12-01T01:55:12.602Z,1.98
2022-12-01T02:00:22.737Z,1.35
2022-12-01T02:05:30.154Z,1.45
2022-12-01T02:10:53.074Z,1.27
2022-12-01T02:16:06.825Z,1.55
2022-12-01T02:21:29.991Z,1.10
2022-12-01T02:26:47.506Z,1.42
2022-12-01T02:32:01.744Z,1.35
2022-12-01T02:37:10.971Z,1.50
2022-12-01T02:42:41.731Z,1.52
2022-12-01T02:47:49.538Z,1.35
2022-12-01T02:52:55.547Z,1.65
2022-12-01T02:58:00.703Z,1.95
2022-12-01T03:03:25.878Z,2.53
2022-12-01T03:08:35.960Z,2.97
2022-12-01T03:13:44.082Z,1.75
2022-12-01T03:18:58.268Z,1.77
2022-12-01T03:24:05.524Z,1.88
2022-12-01T03:29:13.549Z,2.20
2022-12-01T03:34:26.092Z,1.80
2022-12-01T03:39:34.833Z,1.80
2022-12-01T03:44:46.652Z,2.03
2022-12-01T03:49:55.470Z,2.55
2022-12-01T03:55:08.250Z,1.90
2022-12-01T04:00:14.774Z,2.33
2022-12-01T04:05:25.309Z,5.35
2022-12-01T04:10:30.815Z,9.18
2022-12-01T04:15:35.878Z,12.27
2022-12-01T04:20:43.634Z,13.23
2022-12-01T04:25:48.648Z,12.35
2022-12-01T04:30:53.714Z,12.73
2022-12-01T04:36:04.719Z,11.55
2022-12-01T04:41:13.007Z,13.75
2022-12-01T04:46:18.237Z,13.55
2022-12-01T04:51:26.304Z,13.45
2022-12-01T04:56:31.388Z,13.30
2022-12-01T05:01:36.775Z,15.85
2022-12-01T05:06:44.481Z,16.33
2022-12-01T05:11:49.511Z,16.42
2022-12-01T05:16:55.307Z,18.33
2022-12-01T05:22:02.978Z,17.15
2022-12-01T05:27:07.953Z,21.23
2022-12-01T05:32:13.450Z,18.52
2022-12-01T05:37:21.125Z,17.55
2022-12-01T05:42:26.089Z,19.42
2022-12-01T05:47:31.114Z,19.98
2022-12-01T05:52:39.102Z,21.38
2022-12-01T05:57:44.075Z,21.27
2022-12-01T06:02:49.053Z,21.83
2022-12-01T06:07:56.691Z,19.67
2022-12-01T06:13:01.641Z,19.52
2022-12-01T06:18:07.161Z,19.83
2022-12-01T06:23:14.878Z,17.77
2022-12-01T06:28:20.350Z,18.20
2022-12-01T06:33:25.415Z,19.60
2022-12-01T06:38:33.905Z,20.50
2022-12-01T06:43:39.307Z,19.27
2022-12-01T06:48:44.359Z,20.25
2022-12-01T06:53:56.896Z,19.65
2022-12-01T06:59:03.597Z,20.23
2022-12-01T07:04:08.858Z,19.00
2022-12-01T07:09:16.534Z,21.40
2022-12-01T07:14:26.823Z,18.98
2022-12-01T07:19:31.852Z,18.48
2022-12-01T07:24:39.596Z,18.85
2022-12-01T07:29:44.713Z,16.65
2022-12-01T07:34:50.002Z,17.15
2022-12-01T07:39:57.804Z,17.17
2022-12-01T07:45:02.796Z,16.52
2022-12-01T07:50:09.065Z,16.80
2022-12-01T07:55:16.701Z,15.18
2022-12-01T08:00:22.337Z,15.27
2022-12-01T08:07:51.895Z,14.23
2022-12-01T08:22:39.822Z,13.07
2022-12-01T08:28:05.491Z,12.93
2022-12-01T09:01:40.483Z,8.32
2022-12-01T15:05:48.770Z,7.05
2022-12-01T15:39:37.278Z,8.40
2022-12-01T15:44:42.307Z,11.68
2022-12-01T15:49:51.963Z,7.95
2022-12-01T15:55:01.461Z,8.52
2022-12-01T16:00:21.505Z,12.35
2022-12-01T16:23:19.227Z,8.75
2022-12-01T16:28:26.012Z,9.05
2022-12-01T16:33:32.081Z,6.93
2022-12-01T16:38:39.818Z,8.20
2022-12-01T16:43:59.425Z,9.48
2022-12-01T16:49:10.357Z,8.70
2022-12-01T16:54:18.172Z,8.52
2022-12-01T16:59:23.497Z,7.35
2022-12-01T17:04:28.696Z,9.27
2022-12-01T17:09:36.787Z,8.88
2022-12-01T17:14:42.297Z,9.45
2022-12-01T17:19:47.622Z,10.57
2022-12-01T17:24:55.879Z,10.13
2022-12-01T17:30:02.444Z,8.20
2022-12-01T17:35:22.901Z,11.32
2022-12-01T17:40:32.195Z,12.27
2022-12-01T17:45:42.246Z,11.10
2022-12-01T17:50:47.564Z,12.02
2022-12-01T17:55:57.983Z,10.80
2022-12-01T18:01:05.137Z,10.77
2022-12-01T18:06:18.637Z,12.15
2022-12-01T18:11:31.289Z,10.90
2022-12-01T18:16:36.659Z,9.15
2022-12-01T18:22:14.081Z,9.95
2022-12-01T18:27:42.708Z,18.60
2022-12-01T18:33:06.504Z,27.77
2022-12-01T18:38:51.143Z,12.27
2022-12-01T18:44:09.938Z,14.15
2022-12-01T18:49:32.355Z,15.75
2022-12-01T18:54:39.745Z,10.82
2022-12-01T18:59:54.334Z,11.45
2022-12-01T19:05:12.464Z,12.82
2022-12-01T19:10:17.851Z,12.98
2022-12-01T19:15:41.764Z,12.43
2022-12-01T19:20:46.898Z,11.07
2022-12-01T19:25:52.299Z,10.80
2022-12-01T19:31:33.168Z,15.00
2022-12-01T19:36:57.842Z,12.20
2022-12-01T19:42:41.030Z,12.85
2022-12-01T20:01:10.108Z,5.30
2022-12-01T20:12:28.293Z,4.55
2022-12-01T20:17:33.631Z,4.97
2022-12-01T20:22:53.743Z,4.53
2022-12-01T20:28:04.179Z,5.47
2022-12-01T20:33:14.865Z,8.23
2022-12-01T20:38:25.769Z,3.92
2022-12-01T20:43:35.670Z,3.00
2022-12-01T20:48:40.964Z,3.40
2022-12-01T20:54:30.098Z,3.75
2022-12-01T21:05:42.724Z,4.63
2022-12-01T21:10:53.662Z,3.88
2022-12-01T21:16:06.007Z,4.68
2022-12-01T21:21:25.004Z,2.83
2022-12-01T21:27:00.862Z,3.88
2022-12-01T21:32:21.742Z,4.03
2022-12-01T21:38:45.917Z,3.60
2022-12-01T21:49:06.967Z,3.30
2022-12-01T21:54:26.094Z,2.17
2022-12-01T21:59:31.432Z,2.33
2022-12-01T22:04:39.611Z,2.45
2022-12-01T22:09:53.146Z,2.35
2022-12-01T22:15:15.788Z,3.40
2022-12-01T22:20:26.192Z,5.55
2022-12-01T22:25:34.472Z,4.72
2022-12-01T22:30:40.932Z,3.05
2022-12-01T22:35:54.613Z,2.40
2022-12-01T22:41:13.040Z,2.72
2022-12-01T22:46:33.603Z,3.10
2022-12-01T22:51:53.481Z,3.40
2022-12-01T22:57:18.111Z,3.35
2022-12-01T23:02:26.475Z,2.83
2022-12-01T23:08:12.450Z,3.88
2022-12-01T23:20:08.100Z,3.50
2022-12-01T23:25:53.563Z,3.10
2022-12-01T23:31:07.879Z,3.60
2022-12-01T23:54:04.820Z,3.20
2022-12-01T23:59:38.956Z,2.90
